Time;durP1;ratioP1;P1;durP2;ratioP2;P2;SDS_P1;SDS_P2;PMS_P1;PMS_P2;Temp;Humidity;BMP_temperature;BMP_pressure;BME280_temperature;BME280_humidity;BME280_pressure;Samples;Min_cycle;Max_cycle;Signal;HPM_P1;HPM_P2
2021/04/19 00:02:08;;;;;;;28.10;18.30;;;;;;;8.49;100.00;100731.25;5097546;28;20132;-82
2021/04/19 00:04:34;;;;;;;26.33;17.83;;;;;;;8.48;100.00;100727.72;5098647;28;20096;-83
2021/04/19 00:07:01;;;;;;;23.50;17.08;;;;;;;8.47;100.00;100731.28;5094653;28;20070;-83
2021/04/19 00:09:27;;;;;;;25.73;16.98;;;;;;;8.42;100.00;100720.88;5096263;28;20095;-83
2021/04/19 00:11:53;;;;;;;23.65;17.00;;;;;;;8.39;100.00;100720.09;5096467;28;20126;-82
2021/04/19 00:14:20;;;;;;;23.42;16.55;;;;;;;8.39;100.00;100720.97;5090735;28;20040;-84
2021/04/19 00:16:46;;;;;;;24.55;17.23;;;;;;;8.44;100.00;100719.03;5078116;28;20035;-81
2021/04/19 00:19:12;;;;;;;24.05;17.08;;;;;;;8.45;100.00;100719.91;5098471;28;20447;-81
2021/04/19 00:21:39;;;;;;;24.40;16.70;;;;;;;8.51;100.00;100719.69;5097479;28;20103;-81
2021/04/19 00:24:06;;;;;;;21.77;15.00;;;;;;;8.53;100.00;100717.88;5080117;28;20089;-82
2021/04/19 00:26:34;;;;;;;20.73;14.68;;;;;;;8.52;100.00;100712.63;5094182;28;20543;-83
2021/04/19 00:29:01;;;;;;;19.42;14.77;;;;;;;8.50;100.00;100712.69;5095388;28;20181;-82
2021/04/19 00:31:28;;;;;;;21.02;15.52;;;;;;;8.40;100.00;100709.50;5095421;28;20044;-81
2021/04/19 00:33:55;;;;;;;20.13;14.75;;;;;;;8.40;100.00;100712.13;5098814;28;20071;-81
2021/04/19 00:36:21;;;;;;;21.40;15.25;;;;;;;8.36;100.00;100702.59;5105306;28;20464;-83
2021/04/19 00:38:48;;;;;;;22.75;15.38;;;;;;;8.40;100.00;100706.84;5113772;28;20079;-85
2021/04/19 00:41:16;;;;;;;19.20;13.80;;;;;;;8.41;100.00;100713.88;5111123;28;20051;-84
2021/04/19 00:43:42;;;;;;;19.67;14.05;;;;;;;8.36;100.00;100707.88;5106221;28;20036;-85
2021/04/19 00:46:09;;;;;;;19.63;12.82;;;;;;;8.33;100.00;100712.41;5089003;28;20050;-85
2021/04/19 00:48:36;;;;;;;17.85;12.45;;;;;;;8.25;100.00;100711.75;5107389;28;20039;-83
2021/04/19 00:51:06;;;;;;;20.27;13.63;;;;;;;8.24;100.00;100721.44;5105608;28;20039;-84
2021/04/19 00:53:36;;;;;;;21.48;14.98;;;;;;;8.29;100.00;100708.09;5094936;28;20086;-83
2021/04/19 00:56:03;;;;;;;19.83;14.10;;;;;;;8.31;100.00;100703.63;5102771;28;20093;-83
2021/04/19 00:58:33;;;;;;;21.73;14.32;;;;;;;8.31;100.00;100701.00;5094259;28;20394;-82
2021/04/19 01:01:04;;;;;;;19.98;14.68;;;;;;;8.34;100.00;100700.94;5094676;28;20056;-82
2021/04/19 01:03:32;;;;;;;19.45;13.35;;;;;;;8.28;100.00;100695.81;5100759;28;20906;-83
2021/04/19 01:06:00;;;;;;;18.85;13.02;;;;;;;8.22;100.00;100688.09;5087674;28;20046;-82
2021/04/19 01:08:27;;;;;;;15.95;12.35;;;;;;;8.14;100.00;100687.50;5100730;28;20120;-82
2021/04/19 01:10:53;;;;;;;17.73;12.85;;;;;;;8.07;100.00;100692.94;5099539;28;20070;-83
2021/04/19 01:13:19;;;;;;;17.48;12.88;;;;;;;7.96;100.00;100687.16;5103271;28;20074;-83
2021/04/19 01:15:45;;;;;;;18.27;13.48;;;;;;;8.00;100.00;100694.06;5102155;28;20060;-83
2021/04/19 01:18:11;;;;;;;19.55;14.13;;;;;;;8.00;100.00;100693.22;5100569;28;20058;-83
2021/04/19 01:20:46;;;;;;;18.83;13.25;;;;;;;7.93;100.00;100692.53;5102953;28;20056;-83
2021/04/19 01:23:14;;;;;;;20.10;15.07;;;;;;;7.86;100.00;100687.50;5104959;28;20437;-84
2021/04/19 01:25:41;;;;;;;21.00;14.63;;;;;;;7.76;100.00;100686.91;5113464;28;20060;-80
2021/04/19 01:28:08;;;;;;;24.92;17.20;;;;;;;7.74;100.00;100681.69;5110326;28;20055;-81
2021/04/19 01:30:40;;;;;;;26.52;16.90;;;;;;;7.75;100.00;100693.97;5095942;28;20032;-81
2021/04/19 01:33:06;;;;;;;25.92;17.88;;;;;;;7.67;100.00;100682.78;5110231;28;20067;-81
2021/04/19 01:35:34;;;;;;;25.88;17.73;;;;;;;7.64;100.00;100669.72;5112864;28;20073;-81
2021/04/19 01:38:01;;;;;;;28.33;18.67;;;;;;;7.69;100.00;100685.38;5105379;28;20040;-80
2021/04/19 01:40:29;;;;;;;33.30;21.05;;;;;;;7.73;100.00;100692.28;5104426;28;20044;-85
2021/04/19 01:42:55;;;;;;;31.23;20.73;;;;;;;7.76;100.00;100694.81;5113542;28;20049;-82
2021/04/19 01:45:25;;;;;;;33.47;21.50;;;;;;;7.74;100.00;100689.59;5115097;28;20039;-82
2021/04/19 01:47:56;;;;;;;33.17;21.33;;;;;;;7.82;100.00;100693.78;5113980;28;20104;-85
2021/04/19 01:50:30;;;;;;;28.48;19.65;;;;;;;7.83;100.00;100696.38;5112719;28;20458;-83
2021/04/19 01:52:59;;;;;;;32.92;20.83;;;;;;;7.86;100.00;100701.56;5106394;28;20040;-83
2021/04/19 01:55:29;;;;;;;27.83;18.67;;;;;;;7.87;100.00;100699.78;5108068;28;20065;-84
2021/04/19 01:57:58;;;;;;;25.58;17.73;;;;;;;7.91;100.00;100704.88;5107920;28;20068;-86
2021/04/19 02:00:27;;;;;;;28.45;18.77;;;;;;;7.91;100.00;100702.25;5114707;28;20073;-84
2021/04/19 02:03:16;;;;;;;30.48;19.52;;;;;;;7.94;100.00;100702.16;5117193;27;20044;-85
2021/04/19 02:05:47;;;;;;;26.73;18.48;;;;;;;7.99;100.00;100700.25;5117172;28;20047;-85
2021/04/19 02:08:25;;;;;;;27.55;18.20;;;;;;;8.02;100.00;100701.94;5117388;28;20056;-85
2021/04/19 02:11:25;;;;;;;26.50;17.58;;;;;;;8.05;100.00;100701.81;5117310;28;20051;-83
2021/04/19 02:14:37;;;;;;;25.13;17.37;;;;;;;8.07;100.00;100700.88;5102413;28;20036;-83
2021/04/19 02:17:34;;;;;;;26.02;17.80;;;;;;;8.08;100.00;100694.69;5094615;28;20478;-83
2021/04/19 02:20:13;;;;;;;24.60;17.02;;;;;;;8.12;100.00;100695.44;5098967;28;20035;-83
2021/04/19 02:22:43;;;;;;;22.05;15.27;;;;;;;8.14;100.00;100692.75;5100344;28;20035;-84
2021/04/19 02:25:32;;;;;;;24.10;16.33;;;;;;;8.15;100.00;100694.50;5108174;28;20103;-84
2021/04/19 02:28:03;;;;;;;19.20;14.32;;;;;;;8.15;100.00;100681.31;5093970;28;20045;-84
2021/04/19 02:30:34;;;;;;;18.58;14.15;;;;;;;8.14;100.00;100679.56;5108688;28;20044;-83
2021/04/19 02:33:04;;;;;;;18.48;13.77;;;;;;;8.14;100.00;100684.84;5107906;28;20067;-83
2021/04/19 02:35:33;;;;;;;19.15;14.20;;;;;;;8.10;100.00;100692.00;5116321;28;20103;-84
2021/04/19 02:38:01;;;;;;;16.63;13.55;;;;;;;8.08;100.00;100693.81;5101396;28;20071;-83
2021/04/19 02:40:32;;;;;;;17.60;13.13;;;;;;;8.03;100.00;100695.72;5100998;28;20051;-86
2021/04/19 02:43:00;;;;;;;17.63;13.30;;;;;;;7.98;100.00;100701.16;5097244;28;20111;-84
2021/04/19 02:45:28;;;;;;;20.40;14.10;;;;;;;7.99;100.00;100694.13;5116465;28;20048;-84
2021/04/19 02:47:55;;;;;;;20.77;14.82;;;;;;;7.99;100.00;100694.97;5115830;28;20036;-84
2021/04/19 02:50:26;;;;;;;18.85;14.20;;;;;;;8.05;100.00;100699.19;5083047;28;20044;-83
2021/04/19 02:52:53;;;;;;;19.23;13.05;;;;;;;8.00;100.00;100687.94;5094066;28;20494;-84
2021/04/19 02:55:27;;;;;;;20.00;14.43;;;;;;;8.03;100.00;100691.31;5095630;28;20109;-84
2021/04/19 02:57:57;;;;;;;18.50;13.88;;;;;;;8.02;100.00;100686.13;5098622;28;20047;-84
2021/04/19 03:00:27;;;;;;;18.80;13.30;;;;;;;7.99;100.00;100678.28;5097119;28;20044;-84
2021/04/19 03:02:57;;;;;;;16.42;13.05;;;;;;;7.94;100.00;100682.84;5096378;28;20641;-84
2021/04/19 03:05:24;;;;;;;17.60;13.47;;;;;;;7.96;100.00;100687.16;5112416;28;20036;-83
2021/04/19 03:07:58;;;;;;;17.60;13.77;;;;;;;7.99;100.00;100678.28;5091372;28;20040;-84
2021/04/19 03:10:29;;;;;;;18.00;13.50;;;;;;;8.00;100.00;100683.53;5114073;28;20092;-84
2021/04/19 03:12:58;;;;;;;20.80;14.25;;;;;;;8.01;100.00;100681.75;5113573;28;20056;-84
2021/04/19 03:15:30;;;;;;;22.00;15.70;;;;;;;8.03;100.00;100679.91;5112961;28;20040;-84
2021/04/19 03:17:59;;;;;;;22.83;15.05;;;;;;;8.01;100.00;100679.13;5098298;28;20111;-84
2021/04/19 03:20:43;;;;;;;21.80;15.68;;;;;;;8.03;100.00;100679.91;5112365;28;20108;-83
2021/04/19 03:23:11;;;;;;;21.67;15.80;;;;;;;8.05;100.00;100684.22;5099421;28;20036;-84
2021/04/19 03:25:40;;;;;;;21.00;14.85;;;;;;;8.04;100.00;100687.75;5110876;28;20086;-85
2021/04/19 03:28:08;;;;;;;20.65;15.52;;;;;;;8.02;100.00;100684.34;5105548;28;20044;-85
2021/04/19 03:30:34;;;;;;;22.30;15.88;;;;;;;8.00;100.00;100680.03;5116384;28;20056;-85
2021/04/19 03:33:02;;;;;;;23.90;15.57;;;;;;;7.99;100.00;100684.44;5120576;28;20067;-83
2021/04/19 03:35:34;;;;;;;22.98;16.27;;;;;;;7.97;100.00;100683.63;5118045;28;20060;-86
2021/04/19 03:38:01;;;;;;;21.92;15.95;;;;;;;8.00;100.00;100688.81;5115358;28;20056;-86
2021/04/19 03:40:34;;;;;;;23.80;16.52;;;;;;;7.96;100.00;100679.25;5115930;28;20043;-85
2021/04/19 03:43:07;;;;;;;26.33;17.77;;;;;;;7.95;100.00;100684.56;5115070;28;20063;-84
2021/04/19 03:45:37;;;;;;;23.27;16.58;;;;;;;7.95;100.00;100688.06;5116828;28;20044;-83
2021/04/19 03:48:08;;;;;;;26.00;17.95;;;;;;;8.00;100.00;100687.94;5118352;28;20099;-84
2021/04/19 03:50:38;;;;;;;27.05;17.60;;;;;;;7.95;100.00;100685.44;5117650;28;20086;-85
2021/04/19 03:53:05;;;;;;;26.13;17.60;;;;;;;7.94;100.00;100678.44;5105354;28;20092;-83
2021/04/19 03:55:32;;;;;;;28.65;19.05;;;;;;;8.00;100.00;100686.16;5111161;28;20071;-81
2021/04/19 03:57:59;;;;;;;29.38;18.95;;;;;;;8.04;100.00;100686.91;5114917;28;20854;-83
2021/04/19 04:00:29;;;;;;;29.00;18.60;;;;;;;8.02;100.00;100684.34;5109218;28;20039;-84
2021/04/19 04:02:56;;;;;;;29.25;19.35;;;;;;;8.02;100.00;100679.06;5110377;28;20044;-79
2021/04/19 04:05:23;;;;;;;30.30;19.05;;;;;;;8.03;100.00;100680.75;5112807;28;20047;-85
2021/04/19 04:07:51;;;;;;;28.38;19.33;;;;;;;7.99;100.00;100676.53;5115975;28;20570;-85
2021/04/19 04:10:21;;;;;;;32.67;20.85;;;;;;;7.93;100.00;100674.06;5115281;28;20036;-84
2021/04/19 04:12:48;;;;;;;30.00;20.33;;;;;;;7.94;100.00;100674.94;5115095;28;20051;-85
2021/04/19 04:15:16;;;;;;;33.20;20.25;;;;;;;7.89;100.00;100672.44;5116251;28;20086;-84
2021/04/19 04:17:43;;;;;;;31.25;21.30;;;;;;;7.90;100.00;100679.44;5112471;28;20055;-84
2021/04/19 04:20:10;;;;;;;32.22;21.05;;;;;;;7.95;100.00;100672.25;5111122;28;20035;-85
2021/04/19 04:22:36;;;;;;;30.52;21.08;;;;;;;7.98;100.00;100682.72;5108007;28;20078;-84
2021/04/19 04:25:05;;;;;;;30.85;20.55;;;;;;;7.98;100.00;100681.84;5108003;28;20091;-84
2021/04/19 04:27:32;;;;;;;34.60;21.27;;;;;;;7.90;100.00;100671.53;5110633;28;20031;-84
2021/04/19 04:29:58;;;;;;;30.35;20.35;;;;;;;7.73;100.00;100664.13;5105931;28;20127;-87
2021/04/19 04:32:24;;;;;;;33.53;21.70;;;;;;;7.70;100.00;100681.84;5109396;28;20060;-84
2021/04/19 04:34:51;;;;;;;33.63;22.27;;;;;;;7.63;100.00;100681.16;5111957;28;20040;-84
2021/04/19 04:37:17;;;;;;;35.72;21.38;;;;;;;7.58;100.00;100687.47;5109491;28;20071;-84
2021/04/19 04:39:45;;;;;;;34.03;21.92;;;;;;;7.51;100.00;100683.31;5110696;28;20140;-83
2021/04/19 04:42:17;;;;;;;35.28;22.27;;;;;;;7.46;100.00;100682.56;5099917;28;20132;-85
2021/04/19 04:44:47;;;;;;;32.42;21.27;;;;;;;7.42;100.00;100678.28;5107210;28;20099;-83
2021/04/19 04:47:13;;;;;;;36.30;22.00;;;;;;;7.40;100.00;100686.22;5087422;28;20044;-85
2021/04/19 04:50:17;;;;;;;40.65;24.20;;;;;;;7.32;100.00;100680.34;5103886;28;20099;-85
2021/04/19 04:53:04;;;;;;;36.92;23.10;;;;;;;7.32;100.00;100680.34;5024375;28;20073;-83
2021/04/19 04:55:32;;;;;;;37.15;22.88;;;;;;;7.33;100.00;100679.44;5101524;28;20040;-84
2021/04/19 04:58:00;;;;;;;37.58;23.25;;;;;;;7.33;100.00;100690.84;5107850;28;20429;-86
2021/04/19 05:00:29;;;;;;;35.05;22.52;;;;;;;7.32;100.00;100690.88;5108782;28;20040;-84
2021/04/19 05:02:56;;;;;;;35.40;22.83;;;;;;;7.33;100.00;100682.94;5100878;28;20048;-83
2021/04/19 05:05:23;;;;;;;37.05;23.17;;;;;;;7.34;100.00;100689.94;5091715;28;20036;-83
2021/04/19 05:07:50;;;;;;;37.88;22.58;;;;;;;7.29;100.00;100691.81;5105480;28;20100;-83
2021/04/19 05:10:18;;;;;;;39.65;24.15;;;;;;;7.31;100.00;100687.38;5103116;28;20075;-85
2021/04/19 05:12:46;;;;;;;37.50;23.05;;;;;;;7.34;100.00;100689.94;5104338;28;20095;-83
2021/04/19 05:15:13;;;;;;;37.72;23.52;;;;;;;7.32;100.00;100690.88;5098728;28;20032;-80
2021/04/19 05:17:41;;;;;;;35.28;22.95;;;;;;;7.28;100.00;100690.09;5106805;28;20071;-80
2021/04/19 05:20:10;;;;;;;37.33;23.27;;;;;;;7.31;100.00;100691.78;5105287;28;20047;-81
2021/04/19 05:22:38;;;;;;;38.13;24.10;;;;;;;7.31;100.00;100690.00;5108281;28;20036;-82
2021/04/19 05:25:06;;;;;;;39.05;24.60;;;;;;;7.35;100.00;100691.66;5085732;28;20047;-83
2021/04/19 05:27:32;;;;;;;39.50;24.40;;;;;;;7.40;100.00;100689.72;5101849;28;20127;-82
2021/04/19 05:29:59;;;;;;;36.90;24.30;;;;;;;7.43;100.00;100693.19;5101106;28;20126;-83
2021/04/19 05:32:48;;;;;;;38.40;23.50;;;;;;;7.48;100.00;100704.47;5083541;28;20036;-83
2021/04/19 05:35:16;;;;;;;34.85;22.10;;;;;;;7.55;100.00;100703.41;5074627;28;20100;-82
2021/04/19 05:37:45;;;;;;;35.38;23.00;;;;;;;7.63;100.00;100706.66;5109349;28;20040;-84
2021/04/19 05:40:12;;;;;;;36.75;22.70;;;;;;;7.64;100.00;100701.34;5081771;28;20033;-84
2021/04/19 05:42:41;;;;;;;34.97;22.85;;;;;;;7.62;100.00;100702.28;5105069;28;20056;-85
2021/04/19 05:45:08;;;;;;;31.83;21.45;;;;;;;7.63;100.00;100711.91;5113967;28;20104;-84
2021/04/19 05:47:37;;;;;;;33.30;21.90;;;;;;;7.64;99.86;100722.41;5095101;28;20020;-81
2021/04/19 05:50:06;;;;;;;30.05;19.75;;;;;;;7.58;98.30;100721.72;5105194;28;20115;-84
2021/04/19 05:52:35;;;;;;;30.55;20.58;;;;;;;7.50;98.21;100724.59;5098164;28;20126;-84
2021/04/19 05:55:02;;;;;;;33.88;22.05;;;;;;;7.43;98.19;100730.06;5076526;28;20128;-84
2021/04/19 05:58:01;;;;;;;32.33;21.08;;;;;;;7.49;98.51;100727.28;5093138;28;20048;-85
2021/04/19 06:00:37;;;;;;;34.58;21.73;;;;;;;7.65;98.88;100733.81;5104393;28;20146;-83
2021/04/19 06:03:18;;;;;;;31.30;20.48;;;;;;;7.80;98.41;100728.09;5109599;28;20059;-83
2021/04/19 06:06:16;;;;;;;31.52;20.80;;;;;;;7.94;97.14;100732.94;5115633;28;20036;-83
2021/04/19 06:08:51;;;;;;;29.98;19.98;;;;;;;7.97;96.10;100732.84;5092343;28;20059;-83
2021/04/19 06:11:28;;;;;;;31.35;20.15;;;;;;;8.01;95.62;100732.72;5096750;28;20143;-85
2021/04/19 06:13:56;;;;;;;28.50;19.80;;;;;;;8.07;95.40;100740.44;5082046;28;20036;-85
2021/04/19 06:16:25;;;;;;;27.10;18.55;;;;;;;8.05;95.05;100731.69;5080214;28;20032;-85
2021/04/19 06:18:53;;;;;;;25.20;16.45;;;;;;;8.20;92.99;100734.75;5102992;28;20044;-85
2021/04/19 06:21:20;;;;;;;23.95;16.98;;;;;;;8.27;92.31;100731.88;5098930;28;20647;-86
2021/04/19 06:23:51;;;;;;;23.55;16.48;;;;;;;8.30;91.32;100737.06;5101307;28;20052;-85
2021/04/19 06:26:18;;;;;;;23.27;16.88;;;;;;;8.42;91.23;100741.97;5098957;28;20050;-83
2021/04/19 06:28:49;;;;;;;23.02;16.38;;;;;;;8.66;90.68;100745.56;5080224;28;20043;-84
2021/04/19 06:31:22;;;;;;;23.40;16.25;;;;;;;8.96;91.91;100742.81;5096268;28;20364;-85
2021/04/19 06:34:04;;;;;;;;;;;;;;;9.57;88.69;100751.19;5085190;28;20043;-83
2021/04/19 06:36:36;;;;;;;19.73;14.05;;;;;;;10.57;82.89;100746.38;5090965;28;19916;-85
2021/04/19 06:39:05;;;;;;;18.00;12.23;;;;;;;11.85;75.05;100746.91;5089171;28;20073;-84
2021/04/19 06:41:33;;;;;;;17.45;12.52;;;;;;;12.28;70.74;100751.03;5093903;28;20382;-85
2021/04/19 06:44:00;;;;;;;14.10;12.02;;;;;;;11.84;71.03;100750.50;5094281;28;20040;-85
2021/04/19 06:46:40;;;;;;;14.75;11.60;;;;;;;11.36;72.56;100758.84;5103835;28;20051;-85
2021/04/19 06:49:42;;;;;;;;;;;;;;;;;;;;;
2021/04/19 06:52:46;;;;;;;;;;;;;;;;;;;;;
2021/04/19 06:56:03;;;;;;;;;;;;;;;;;;;;;
2021/04/19 06:59:23;;;;;;;17.98;13.05;;;;;;;11.63;70.44;100751.47;4923645;29;20078;-84
2021/04/19 07:02:36;;;;;;;;;;;;;;;;;;;;;
2021/04/19 07:05:33;;;;;;;17.48;13.23;;;;;;;10.80;72.01;100749.81;4851387;29;20050;-84
2021/04/19 07:08:19;;;;;;;16.65;13.23;;;;;;;10.61;74.55;100753.28;4869661;29;20052;-83
2021/04/19 07:11:22;;;;;;;;;;;;;;;;;;;;;
2021/04/19 07:14:00;;;;;;;17.17;13.75;;;;;;;10.11;75.05;100737.63;4888083;29;20069;-82
2021/04/19 07:16:47;;;;;;;17.58;12.70;;;;;;;10.07;76.51;100751.91;4898137;29;20066;-83
2021/04/19 07:19:15;;;;;;;17.50;12.90;;;;;;;10.03;76.29;100745.00;4960103;29;20071;-85
2021/04/19 07:21:42;;;;;;;18.50;13.38;;;;;;;10.83;74.90;100744.38;4955723;28;20044;-84
2021/04/19 07:24:08;;;;;;;17.17;12.68;;;;;;;12.09;71.65;100723.69;4956930;29;20035;-84
2021/04/19 07:26:37;;;;;;;14.50;11.30;;;;;;;12.89;67.77;100735.59;4958381;29;20055;-83
2021/04/19 07:29:08;;;;;;;;;;;;;;;12.93;66.26;100741.59;4963880;29;20047;-84
2021/04/19 07:31:48;;;;;;;15.10;10.77;;;;;;;12.68;67.51;100743.78;4951161;29;19957;-82
2021/04/19 07:34:29;;;;;;;14.07;10.77;;;;;;;12.47;67.80;100733.28;4958591;28;20071;-84
2021/04/19 07:37:04;;;;;;;12.73;10.63;;;;;;;12.05;67.20;100744.19;5043451;28;20168;-84
2021/04/19 07:39:40;;;;;;;16.30;11.40;;;;;;;11.71;69.66;100736.91;5052439;28;20033;-82
2021/04/19 07:42:09;;;;;;;14.13;10.88;;;;;;;11.44;70.37;100736.41;5052311;28;20064;-85
2021/04/19 07:44:42;;;;;;;14.68;11.15;;;;;;;11.14;70.51;100735.09;5041964;28;20176;-84
2021/04/19 07:47:36;;;;;;;14.93;12.02;;;;;;;10.69;71.33;100738.81;5053180;28;20072;-83
2021/04/19 07:50:08;;;;;;;16.80;12.52;;;;;;;10.35;72.93;100738.47;5023979;28;20037;-86
2021/04/19 07:52:53;;;;;;;16.40;11.77;;;;;;;10.27;74.10;100743.19;5044376;28;20046;-84
2021/04/19 07:55:25;;;;;;;16.98;12.73;;;;;;;10.34;75.43;100742.91;5057669;28;20045;-85
2021/04/19 07:58:16;;;;;;;15.50;11.60;;;;;;;10.49;74.70;100734.34;5046635;28;20118;-84
2021/04/19 08:00:44;;;;;;;15.65;12.10;;;;;;;10.62;74.79;100733.81;5059623;28;20093;-83
2021/04/19 08:03:14;;;;;;;14.15;11.40;;;;;;;10.59;73.66;100737.44;5068494;28;20037;-82
2021/04/19 08:05:47;;;;;;;15.80;11.88;;;;;;;10.39;74.09;100727.66;5053949;28;20113;-82
2021/04/19 08:08:15;;;;;;;18.60;12.93;;;;;;;10.29;74.68;100739.56;5057506;28;20064;-84
2021/04/19 08:10:44;;;;;;;16.20;12.20;;;;;;;10.27;75.95;100740.53;5045455;28;20045;-83
2021/04/19 08:13:13;;;;;;;14.30;11.65;;;;;;;10.28;76.18;100744.91;5044349;28;20216;-82
2021/04/19 08:15:43;;;;;;;17.35;11.57;;;;;;;10.13;74.59;100720.75;5033400;28;20197;-82
2021/04/19 08:18:11;;;;;;;16.83;11.98;;;;;;;10.19;74.73;100747.03;5048272;28;20052;-86
2021/04/19 08:20:48;;;;;;;16.27;12.30;;;;;;;10.13;74.94;100738.41;5051409;28;20101;-85
2021/04/19 08:23:15;;;;;;;17.77;12.02;;;;;;;10.09;74.98;100732.38;5058410;28;20025;-86
2021/04/19 08:25:48;;;;;;;16.60;12.15;;;;;;;10.06;75.74;100731.66;5058483;28;20038;-85
2021/04/19 08:28:20;;;;;;;17.33;12.35;;;;;;;10.07;75.48;100743.97;5054343;28;20057;-85
2021/04/19 08:30:58;;;;;;;16.50;12.23;;;;;;;9.95;76.54;100726.78;5061925;28;20056;-85
2021/04/19 08:33:28;;;;;;;16.08;13.02;;;;;;;10.04;76.12;100726.44;5068606;28;20104;-84
2021/04/19 08:35:57;;;;;;;16.02;12.23;;;;;;;10.19;76.25;100736.44;5061481;28;20041;-84
2021/04/19 08:38:24;;;;;;;18.23;12.80;;;;;;;10.43;75.84;100739.88;5050307;28;20045;-83
2021/04/19 08:40:56;;;;;;;17.73;12.87;;;;;;;10.67;74.74;100731.84;5047497;28;20045;-86
2021/04/19 08:43:33;;;;;;;16.42;12.63;;;;;;;10.91;73.23;100720.19;5022226;28;20033;-84
2021/04/19 08:46:27;;;;;;;;;;;;;;;;;;;;;
2021/04/19 08:49:35;;;;;;;;;;;;;;;;;;;;;
2021/04/19 08:52:38;;;;;;;;;;;;;;;;;;;;;
2021/04/19 08:55:35;;;;;;;;;;;;;;;;;;;;;
2021/04/19 08:58:35;;;;;;;;;;;;;;;;;;;;;
2021/04/19 09:01:33;;;;;;;;;;;;;;;;;;;;;
2021/04/19 09:07:44;;;;;;;14.98;11.23;;;;;;;12.20;68.23;100697.47;4783191;29;20050;-83
2021/04/19 09:11:07;;;;;;;;;;;;;;;;;;;;;
2021/04/19 09:14:21;;;;;;;;;;;;;;;;;;;;;
2021/04/19 09:17:11;;;;;;;;;;;;;;;;;;;;;
2021/04/19 09:20:14;;;;;;;;;;;;;;;;;;;;;
2021/04/19 09:23:36;;;;;;;;;;;;;;;;;;;;;
2021/04/19 09:26:55;;;;;;;12.35;9.45;;;;;;;12.03;67.38;100711.56;4935200;28;20055;-83
2021/04/19 09:30:07;;;;;;;13.60;9.32;;;;;;;12.43;66.86;100717.59;4973601;28;20043;-84
2021/04/19 09:33:19;;;;;;;;;;;;;;;;;;;;;
2021/04/19 09:37:05;;;;;;;;;;;;;;;;;;;;;
2021/04/19 09:39:51;;;;;;;10.85;7.97;;;;;;;13.23;62.18;100736.53;4943197;29;20110;-84
2021/04/19 09:43:05;;;;;;;;;;;;;;;;;;;;;
2021/04/19 09:46:21;;;;;;;;;;;;;;;;;;;;;
2021/04/19 09:50:01;;;;;;;;;;;;;;;;;;;;;
2021/04/19 09:53:44;;;;;;;;;;;;;;;;;;;;;
2021/04/19 09:57:13;;;;;;;;;;;;;;;;;;;;;
2021/04/19 10:00:16;;;;;;;;;;;;;;;;;;;;;
2021/04/19 10:03:37;;;;;;;;;;;;;;;;;;;;;
2021/04/19 10:06:56;;;;;;;11.07;7.93;;;;;;;12.59;64.52;100722.03;4834179;29;20042;-84
2021/04/19 10:09:43;;;;;;;;;;;;;;;;;;;;;
2021/04/19 10:13:16;;;;;;;;;;;;;;;12.89;63.07;100724.13;4820878;29;20119;-85
2021/04/19 10:16:42;;;;;;;;;;;;;;;;;;;;;
2021/04/19 10:19:56;;;;;;;10.02;7.63;;;;;;;12.99;62.39;100709.41;4793588;29;20045;-83
2021/04/19 10:23:25;;;;;;;;;;;;;;;;;;;;;
2021/04/19 10:26:53;;;;;;;;;;;;;;;;;;;;;
2021/04/19 10:33:26;;;;;;;9.93;7.35;;;;;;;12.91;62.07;100704.47;4879830;29;20044;-85
2021/04/19 10:36:36;;;;;;;;;;;;;;;;;;;;;
2021/04/19 10:39:56;;;;;;;;;;;;;;;;;;;;;
2021/04/19 10:43:49;;;;;;;10.75;7.70;;;;;;;12.71;62.05;100696.69;5002204;28;20046;-83
2021/04/19 10:46:31;;;;;;;10.13;7.85;;;;;;;12.95;61.59;100714.00;4997534;28;20045;-83
2021/04/19 10:49:00;;;;;;;10.45;7.80;;;;;;;12.96;62.33;100702.44;5095528;28;20052;-84
2021/04/19 10:51:28;;;;;;;;;;;;;;;13.19;61.94;100719.03;5094008;28;20046;-82
2021/04/19 10:53:56;;;;;;;9.00;7.07;;;;;;;13.45;59.64;100715.84;5090004;28;19952;-83
2021/04/19 10:56:25;;;;;;;9.45;7.22;;;;;;;13.63;58.53;100698.03;5098131;28;20104;-84
2021/04/19 10:59:23;;;;;;;10.02;7.10;;;;;;;14.01;57.63;100701.19;5094351;28;20044;-84
2021/04/19 11:02:22;;;;;;;8.82;7.15;;;;;;;14.27;56.49;100695.28;5089959;28;20040;-84
2021/04/19 11:04:49;;;;;;;8.73;6.57;;;;;;;14.41;56.27;100691.84;5090819;28;20498;-84
2021/04/19 11:07:42;;;;;;;8.05;6.50;;;;;;;14.61;54.58;100698.69;5096844;28;20044;-84
2021/04/19 11:10:18;;;;;;;7.95;6.60;;;;;;;14.87;54.68;100692.66;5075755;28;20112;-84
2021/04/19 11:13:10;;;;;;;10.50;7.13;;;;;;;14.92;53.50;100693.25;5091660;28;20044;-84
2021/04/19 11:15:45;;;;;;;9.60;7.10;;;;;;;14.76;54.47;100673.78;5096931;28;20087;-83
2021/04/19 11:18:26;;;;;;;8.95;7.07;;;;;;;14.66;53.49;100688.59;5088352;28;20060;-85
2021/04/19 11:20:54;;;;;;;9.70;6.53;;;;;;;14.41;54.77;100690.97;5086592;28;20835;-85
2021/04/19 11:23:27;;;;;;;10.10;7.78;;;;;;;14.35;55.31;100682.34;5095387;28;20052;-83
2021/04/19 11:25:57;;;;;;;9.07;6.93;;;;;;;14.26;55.40;100688.22;5097022;28;20040;-84
2021/04/19 11:28:34;;;;;;;7.45;5.70;;;;;;;14.15;55.03;100677.34;5093474;28;20044;-84
2021/04/19 11:31:15;;;;;;;8.77;6.43;;;;;;;14.20;53.86;100677.06;5095704;28;20414;-84
2021/04/19 11:33:44;;;;;;;8.63;6.28;;;;;;;14.09;54.16;100680.34;5096650;28;20143;-84
2021/04/19 11:36:36;;;;;;;7.70;5.90;;;;;;;14.00;56.03;100686.19;5092249;28;20107;-84
2021/04/19 11:39:13;;;;;;;7.38;6.07;;;;;;;13.97;56.03;100683.69;5074465;28;20040;-83
2021/04/19 11:41:47;;;;;;;8.85;6.55;;;;;;;13.92;56.47;100662.66;5101655;28;20052;-83
2021/04/19 11:44:19;;;;;;;8.85;6.97;;;;;;;14.15;57.59;100679.13;5084297;28;20120;-84
2021/04/19 11:46:49;;;;;;;9.98;7.85;;;;;;;14.32;57.95;100679.03;5102844;28;20051;-83
2021/04/19 11:49:49;;;;;;;;;;;;;;;;;;;;;
2021/04/19 11:53:13;;;;;;;;;;;;;;;;;;;;;
2021/04/19 11:56:29;;;;;;;8.52;7.05;;;;;;;14.45;56.82;100665.88;5054134;28;20056;-84
2021/04/19 11:59:40;;;;;;;;;;;;;;;;;;;;;
2021/04/19 12:02:37;;;;;;;10.82;7.90;;;;;;;14.46;57.11;100667.59;4901535;29;20057;-80
2021/04/19 12:05:37;;;;;;;;;;;;;;;;;;;;;
2021/04/19 12:08:52;;;;;;;;;;;;;;;;;;;;;
2021/04/19 12:12:01;;;;;;;;;;;;;;;;;;;;;
2021/04/19 12:15:04;;;;;;;;;;;;;;;;;;;;;
2021/04/19 12:18:26;;;;;;;;;;;;;;;;;;;;;
2021/04/19 12:21:33;;;;;;;;;;;;;;;;;;;;;
2021/04/19 12:24:22;;;;;;;;;;;;;;;;;;;;;
2021/04/19 12:27:48;;;;;;;;;;;;;;;;;;;;;
2021/04/19 12:30:46;;;;;;;;;;;;;;;;;;;;;
2021/04/19 12:33:51;;;;;;;;;;;;;;;;;;;;;
2021/04/19 12:36:51;;;;;;;;;;;;;;;;;;;;;
2021/04/19 12:40:06;;;;;;;9.55;6.95;;;;;;;13.20;57.57;100679.06;4866656;29;20050;-81
2021/04/19 12:43:08;;;;;;;;;;;;;;;;;;;;;
2021/04/19 12:46:25;;;;;;;;;;;;;;;;;;;;;
2021/04/19 12:49:13;;;;;;;;;;;;;;;;;;;;;
2021/04/19 12:52:26;;;;;;;;;;;;;;;;;;;;;
2021/04/19 12:55:02;;;;;;;;;;;;;;;;;;;;;
2021/04/19 12:58:07;;;;;;;;;;;;;;;;;;;;;
2021/04/19 13:01:29;;;;;;;;;;;;;;;;;;;;;
2021/04/19 13:04:16;;;;;;;;;;;;;;;;;;;;;
2021/04/19 13:07:50;;;;;;;;;;;;;;;;;;;;;
2021/04/19 13:10:19;;;;;;;9.57;7.25;;;;;;;13.81;56.50;100664.22;4859549;29;20060;-84
2021/04/19 13:12:45;;;;;;;10.00;7.47;;;;;;;14.07;55.42;100686.69;4843688;29;20127;-85
2021/04/19 13:15:12;;;;;;;11.15;7.90;;;;;;;14.08;54.64;100677.75;4928983;29;20043;-86
2021/04/19 13:17:39;;;;;;;10.57;7.55;;;;;;;14.13;54.26;100673.91;4997815;28;20038;-85
2021/04/19 13:20:08;;;;;;;10.40;7.72;;;;;;;14.28;54.67;100665.03;5010613;28;20113;-83
2021/04/19 13:22:35;;;;;;;11.73;7.70;;;;;;;14.45;53.88;100682.72;5014207;28;20034;-84
2021/04/19 13:25:05;;;;;;;12.13;8.02;;;;;;;14.44;52.43;100674.81;5013807;28;20050;-82
2021/04/19 13:27:35;;;;;;;10.13;7.78;;;;;;;14.38;52.74;100670.66;5015200;28;20034;-82
2021/04/19 13:30:01;;;;;;;9.60;7.63;;;;;;;14.35;53.30;100674.34;5010642;28;20079;-84
2021/04/19 13:32:30;;;;;;;11.63;8.13;;;;;;;14.52;53.11;100673.41;5018455;28;20086;-84
2021/04/19 13:34:57;;;;;;;10.02;8.05;;;;;;;14.66;53.01;100664.59;5026984;28;20034;-85
2021/04/19 13:37:24;;;;;;;10.00;7.32;;;;;;;14.84;53.48;100671.50;5022344;28;20044;-83